sensor_id;sensor_type;location;lat;lon;timestamp;P1;durP1;ratioP1;P2;durP2;ratioP2
51184;SDS011;37248;59.350;18.050;2023-01-05T00:02:06;0.70;;;0.30;;
51184;SDS011;37248;59.350;18.050;2023-01-05T00:04:32;0.80;;;0.47;;
51184;SDS011;37248;59.350;18.050;2023-01-05T00:06:57;0.50;;;0.33;;
51184;SDS011;37248;59.350;18.050;2023-01-05T00:09:22;0.67;;;0.37;;
51184;SDS011;37248;59.350;18.050;2023-01-05T00:11:47;0.63;;;0.40;;
51184;SDS011;37248;59.350;18.050;2023-01-05T00:14:32;0.40;;;0.30;;
51184;SDS011;37248;59.350;18.050;2023-01-05T00:17:16;0.50;;;0.30;;
51184;SDS011;37248;59.350;18.050;2023-01-05T00:20:01;0.40;;;0.30;;
51184;SDS011;37248;59.350;18.050;2023-01-05T00:22:49;0.60;;;0.30;;
51184;SDS011;37248;59.350;18.050;2023-01-05T00:27:40;0.60;;;0.30;;
51184;SDS011;37248;59.350;18.050;2023-01-05T00:30:06;0.57;;;0.38;;
51184;SDS011;37248;59.350;18.050;2023-01-05T00:32:32;0.40;;;0.30;;
51184;SDS011;37248;59.350;18.050;2023-01-05T00:34:57;0.47;;;0.20;;
51184;SDS011;37248;59.350;18.050;2023-01-05T00:37:24;0.57;;;0.37;;
51184;SDS011;37248;59.350;18.050;2023-01-05T00:39:50;0.47;;;0.33;;
51184;SDS011;37248;59.350;18.050;2023-01-05T00:42:15;0.68;;;0.30;;
51184;SDS011;37248;59.350;18.050;2023-01-05T00:44:41;0.53;;;0.30;;
51184;SDS011;37248;59.350;18.050;2023-01-05T00:47:06;0.70;;;0.40;;
51184;SDS011;37248;59.350;18.050;2023-01-05T00:49:31;0.40;;;0.30;;
51184;SDS011;37248;59.350;18.050;2023-01-05T00:51:56;0.60;;;0.30;;
51184;SDS011;37248;59.350;18.050;2023-01-05T00:54:22;0.50;;;0.30;;
51184;SDS011;37248;59.350;18.050;2023-01-05T00:56:47;0.60;;;0.20;;
51184;SDS011;37248;59.350;18.050;2023-01-05T00:59:14;0.82;;;0.30;;
51184;SDS011;37248;59.350;18.050;2023-01-05T01:01:39;0.65;;;0.30;;
51184;SDS011;37248;59.350;18.050;2023-01-05T01:04:04;0.70;;;0.30;;
51184;SDS011;37248;59.350;18.050;2023-01-05T01:06:29;0.80;;;0.40;;
51184;SDS011;37248;59.350;18.050;2023-01-05T01:08:55;0.60;;;0.30;;
51184;SDS011;37248;59.350;18.050;2023-01-05T01:11:20;0.30;;;0.20;;
51184;SDS011;37248;59.350;18.050;2023-01-05T01:13:45;0.63;;;0.37;;
51184;SDS011;37248;59.350;18.050;2023-01-05T01:16:12;0.60;;;0.30;;
51184;SDS011;37248;59.350;18.050;2023-01-05T01:18:38;0.60;;;0.38;;
51184;SDS011;37248;59.350;18.050;2023-01-05T01:21:04;0.50;;;0.30;;
51184;SDS011;37248;59.350;18.050;2023-01-05T01:23:29;0.73;;;0.32;;
51184;SDS011;37248;59.350;18.050;2023-01-05T01:25:55;0.70;;;0.40;;
51184;SDS011;37248;59.350;18.050;2023-01-05T01:28:21;0.60;;;0.37;;
51184;SDS011;37248;59.350;18.050;2023-01-05T01:30:46;0.98;;;0.40;;
51184;SDS011;37248;59.350;18.050;2023-01-05T01:33:11;0.67;;;0.30;;
51184;SDS011;37248;59.350;18.050;2023-01-05T01:35:36;0.77;;;0.35;;
51184;SDS011;37248;59.350;18.050;2023-01-05T01:38:02;0.60;;;0.30;;
51184;SDS011;37248;59.350;18.050;2023-01-05T01:40:28;0.50;;;0.40;;
51184;SDS011;37248;59.350;18.050;2023-01-05T01:42:53;0.60;;;0.40;;
51184;SDS011;37248;59.350;18.050;2023-01-05T01:45:22;0.60;;;0.30;;
51184;SDS011;37248;59.350;18.050;2023-01-05T01:47:55;0.67;;;0.23;;
51184;SDS011;37248;59.350;18.050;2023-01-05T01:50:22;1.00;;;0.55;;
51184;SDS011;37248;59.350;18.050;2023-01-05T01:52:49;0.47;;;0.32;;
51184;SDS011;37248;59.350;18.050;2023-01-05T01:55:18;0.63;;;0.30;;
51184;SDS011;37248;59.350;18.050;2023-01-05T01:57:43;0.55;;;0.30;;
51184;SDS011;37248;59.350;18.050;2023-01-05T02:00:10;0.70;;;0.40;;
51184;SDS011;37248;59.350;18.050;2023-01-05T02:02:38;0.52;;;0.35;;
51184;SDS011;37248;59.350;18.050;2023-01-05T02:05:05;0.43;;;0.30;;
51184;SDS011;37248;59.350;18.050;2023-01-05T02:07:32;0.63;;;0.30;;
51184;SDS011;37248;59.350;18.050;2023-01-05T02:09:57;0.50;;;0.30;;
51184;SDS011;37248;59.350;18.050;2023-01-05T02:15:23;0.90;;;0.40;;
51184;SDS011;37248;59.350;18.050;2023-01-05T02:18:18;0.50;;;0.40;;
51184;SDS011;37248;59.350;18.050;2023-01-05T02:36:01;0.70;;;0.20;;
51184;SDS011;37248;59.350;18.050;2023-01-05T02:38:42;0.30;;;0.20;;
51184;SDS011;37248;59.350;18.050;2023-01-05T02:41:12;1.17;;;0.20;;
51184;SDS011;37248;59.350;18.050;2023-01-05T02:43:42;1.20;;;0.40;;
51184;SDS011;37248;59.350;18.050;2023-01-05T02:46:07;0.82;;;0.30;;
51184;SDS011;37248;59.350;18.050;2023-01-05T02:48:32;0.57;;;0.30;;
51184;SDS011;37248;59.350;18.050;2023-01-05T02:50:59;0.50;;;0.23;;
51184;SDS011;37248;59.350;18.050;2023-01-05T02:53:28;0.50;;;0.20;;
51184;SDS011;37248;59.350;18.050;2023-01-05T02:55:56;0.95;;;0.40;;
51184;SDS011;37248;59.350;18.050;2023-01-05T02:58:25;0.77;;;0.38;;
51184;SDS011;37248;59.350;18.050;2023-01-05T03:03:37;0.60;;;0.32;;
51184;SDS011;37248;59.350;18.050;2023-01-05T03:06:24;0.90;;;0.40;;
51184;SDS011;37248;59.350;18.050;2023-01-05T03:08:54;0.85;;;0.40;;
51184;SDS011;37248;59.350;18.050;2023-01-05T03:11:21;0.70;;;0.30;;
51184;SDS011;37248;59.350;18.050;2023-01-05T03:14:11;0.50;;;0.25;;
51184;SDS011;37248;59.350;18.050;2023-01-05T03:16:38;0.70;;;0.40;;
51184;SDS011;37248;59.350;18.050;2023-01-05T03:19:06;0.50;;;0.30;;
51184;SDS011;37248;59.350;18.050;2023-01-05T03:21:50;0.73;;;0.30;;
51184;SDS011;37248;59.350;18.050;2023-01-05T03:24:35;0.50;;;0.30;;
51184;SDS011;37248;59.350;18.050;2023-01-05T03:27:20;0.40;;;0.30;;
51184;SDS011;37248;59.350;18.050;2023-01-05T03:30:04;0.60;;;0.32;;
51184;SDS011;37248;59.350;18.050;2023-01-05T03:32:49;0.52;;;0.30;;
51184;SDS011;37248;59.350;18.050;2023-01-05T03:35:35;0.63;;;0.38;;
51184;SDS011;37248;59.350;18.050;2023-01-05T03:40:31;0.50;;;0.30;;
51184;SDS011;37248;59.350;18.050;2023-01-05T03:42:57;0.93;;;0.47;;
51184;SDS011;37248;59.350;18.050;2023-01-05T03:45:23;1.00;;;0.50;;
51184;SDS011;37248;59.350;18.050;2023-01-05T03:47:49;0.53;;;0.40;;
51184;SDS011;37248;59.350;18.050;2023-01-05T03:50:15;1.05;;;0.38;;
51184;SDS011;37248;59.350;18.050;2023-01-05T03:52:40;0.50;;;0.40;;
51184;SDS011;37248;59.350;18.050;2023-01-05T03:55:05;0.43;;;0.30;;
51184;SDS011;37248;59.350;18.050;2023-01-05T03:57:31;0.63;;;0.40;;
51184;SDS011;37248;59.350;18.050;2023-01-05T03:59:56;0.87;;;0.50;;
51184;SDS011;37248;59.350;18.050;2023-01-05T04:02:21;0.33;;;0.30;;
51184;SDS011;37248;59.350;18.050;2023-01-05T04:04:46;0.77;;;0.30;;
51184;SDS011;37248;59.350;18.050;2023-01-05T04:07:11;0.80;;;0.40;;
51184;SDS011;37248;59.350;18.050;2023-01-05T04:09:37;0.70;;;0.30;;
51184;SDS011;37248;59.350;18.050;2023-01-05T04:12:02;0.40;;;0.30;;
51184;SDS011;37248;59.350;18.050;2023-01-05T04:14:30;1.00;;;0.40;;
51184;SDS011;37248;59.350;18.050;2023-01-05T04:16:55;0.80;;;0.30;;
51184;SDS011;37248;59.350;18.050;2023-01-05T04:19:21;0.50;;;0.30;;
51184;SDS011;37248;59.350;18.050;2023-01-05T04:21:46;1.40;;;0.40;;
51184;SDS011;37248;59.350;18.050;2023-01-05T04:24:11;0.67;;;0.33;;
51184;SDS011;37248;59.350;18.050;2023-01-05T04:26:37;0.50;;;0.30;;
51184;SDS011;37248;59.350;18.050;2023-01-05T04:29:03;0.60;;;0.30;;
51184;SDS011;37248;59.350;18.050;2023-01-05T04:31:28;0.60;;;0.37;;
51184;SDS011;37248;59.350;18.050;2023-01-05T04:33:54;0.50;;;0.40;;
51184;SDS011;37248;59.350;18.050;2023-01-05T04:36:19;0.50;;;0.40;;
51184;SDS011;37248;59.350;18.050;2023-01-05T04:38:44;1.13;;;0.40;;
51184;SDS011;37248;59.350;18.050;2023-01-05T04:41:10;0.70;;;0.50;;
51184;SDS011;37248;59.350;18.050;2023-01-05T04:43:35;0.30;;;0.30;;
51184;SDS011;37248;59.350;18.050;2023-01-05T04:46:00;0.70;;;0.40;;
51184;SDS011;37248;59.350;18.050;2023-01-05T04:48:25;0.60;;;0.30;;
51184;SDS011;37248;59.350;18.050;2023-01-05T04:50:51;0.80;;;0.30;;
51184;SDS011;37248;59.350;18.050;2023-01-05T04:53:17;0.60;;;0.30;;
51184;SDS011;37248;59.350;18.050;2023-01-05T04:55:43;0.60;;;0.40;;
51184;SDS011;37248;59.350;18.050;2023-01-05T04:58:09;0.70;;;0.30;;
51184;SDS011;37248;59.350;18.050;2023-01-05T05:00:34;0.70;;;0.40;;
51184;SDS011;37248;59.350;18.050;2023-01-05T05:03:00;1.05;;;0.38;;
51184;SDS011;37248;59.350;18.050;2023-01-05T05:05:26;1.00;;;0.40;;
51184;SDS011;37248;59.350;18.050;2023-01-05T05:07:51;0.70;;;0.43;;
51184;SDS011;37248;59.350;18.050;2023-01-05T05:10:16;0.63;;;0.40;;
51184;SDS011;37248;59.350;18.050;2023-01-05T05:12:42;0.50;;;0.40;;
51184;SDS011;37248;59.350;18.050;2023-01-05T05:15:07;0.80;;;0.50;;
51184;SDS011;37248;59.350;18.050;2023-01-05T05:17:33;1.50;;;0.40;;
51184;SDS011;37248;59.350;18.050;2023-01-05T05:19:58;0.80;;;0.50;;
51184;SDS011;37248;59.350;18.050;2023-01-05T05:22:23;1.23;;;0.30;;
51184;SDS011;37248;59.350;18.050;2023-01-05T05:24:49;0.57;;;0.30;;
51184;SDS011;37248;59.350;18.050;2023-01-05T05:27:14;0.77;;;0.40;;
51184;SDS011;37248;59.350;18.050;2023-01-05T05:29:39;0.63;;;0.40;;
51184;SDS011;37248;59.350;18.050;2023-01-05T05:32:04;0.80;;;0.50;;
51184;SDS011;37248;59.350;18.050;2023-01-05T05:34:30;0.67;;;0.30;;
51184;SDS011;37248;59.350;18.050;2023-01-05T05:36:55;1.40;;;0.60;;
51184;SDS011;37248;59.350;18.050;2023-01-05T05:39:22;0.90;;;0.40;;
51184;SDS011;37248;59.350;18.050;2023-01-05T05:41:47;1.00;;;0.50;;
51184;SDS011;37248;59.350;18.050;2023-01-05T05:44:13;0.70;;;0.40;;
51184;SDS011;37248;59.350;18.050;2023-01-05T05:46:38;0.80;;;0.50;;
51184;SDS011;37248;59.350;18.050;2023-01-05T05:49:03;1.27;;;0.53;;
51184;SDS011;37248;59.350;18.050;2023-01-05T05:51:28;0.77;;;0.40;;
51184;SDS011;37248;59.350;18.050;2023-01-05T05:53:54;0.60;;;0.40;;
51184;SDS011;37248;59.350;18.050;2023-01-05T05:56:19;0.70;;;0.40;;
51184;SDS011;37248;59.350;18.050;2023-01-05T05:58:44;1.07;;;0.40;;
51184;SDS011;37248;59.350;18.050;2023-01-05T06:01:09;0.67;;;0.40;;
51184;SDS011;37248;59.350;18.050;2023-01-05T06:03:35;0.93;;;0.50;;
51184;SDS011;37248;59.350;18.050;2023-01-05T06:06:01;0.50;;;0.40;;
51184;SDS011;37248;59.350;18.050;2023-01-05T06:08:27;1.00;;;0.65;;
51184;SDS011;37248;59.350;18.050;2023-01-05T06:10:53;2.00;;;0.70;;
51184;SDS011;37248;59.350;18.050;2023-01-05T06:13:18;0.90;;;0.50;;
51184;SDS011;37248;59.350;18.050;2023-01-05T06:15:44;0.65;;;0.50;;
51184;SDS011;37248;59.350;18.050;2023-01-05T06:18:09;2.17;;;0.60;;
51184;SDS011;37248;59.350;18.050;2023-01-05T06:20:35;1.70;;;0.67;;
51184;SDS011;37248;59.350;18.050;2023-01-05T06:23:00;0.70;;;0.40;;
51184;SDS011;37248;59.350;18.050;2023-01-05T06:25:25;1.00;;;0.60;;
51184;SDS011;37248;59.350;18.050;2023-01-05T06:27:51;1.53;;;0.57;;
51184;SDS011;37248;59.350;18.050;2023-01-05T06:30:16;0.90;;;0.40;;
51184;SDS011;37248;59.350;18.050;2023-01-05T06:32:41;1.20;;;0.50;;
51184;SDS011;37248;59.350;18.050;2023-01-05T06:35:06;1.20;;;0.60;;
51184;SDS011;37248;59.350;18.050;2023-01-05T06:37:32;0.97;;;0.60;;
51184;SDS011;37248;59.350;18.050;2023-01-05T06:39:57;0.97;;;0.57;;
51184;SDS011;37248;59.350;18.050;2023-01-05T06:42:23;0.85;;;0.50;;
51184;SDS011;37248;59.350;18.050;2023-01-05T06:44:49;1.50;;;0.60;;
51184;SDS011;37248;59.350;18.050;2023-01-05T06:47:14;1.67;;;0.47;;
51184;SDS011;37248;59.350;18.050;2023-01-05T06:49:40;1.00;;;0.60;;
51184;SDS011;37248;59.350;18.050;2023-01-05T06:52:05;1.10;;;0.60;;
51184;SDS011;37248;59.350;18.050;2023-01-05T06:54:30;1.23;;;0.60;;
51184;SDS011;37248;59.350;18.050;2023-01-05T06:56:55;1.70;;;0.70;;
51184;SDS011;37248;59.350;18.050;2023-01-05T06:59:21;1.50;;;0.67;;
51184;SDS011;37248;59.350;18.050;2023-01-05T07:01:46;1.07;;;0.67;;
51184;SDS011;37248;59.350;18.050;2023-01-05T07:04:11;1.60;;;0.60;;
51184;SDS011;37248;59.350;18.050;2023-01-05T07:06:36;1.00;;;0.60;;
51184;SDS011;37248;59.350;18.050;2023-01-05T07:09:02;1.10;;;0.60;;
51184;SDS011;37248;59.350;18.050;2023-01-05T07:11:27;1.80;;;0.57;;
51184;SDS011;37248;59.350;18.050;2023-01-05T07:13:52;1.17;;;0.60;;
51184;SDS011;37248;59.350;18.050;2023-01-05T07:16:18;0.90;;;0.60;;
51184;SDS011;37248;59.350;18.050;2023-01-05T07:18:43;0.90;;;0.53;;
51184;SDS011;37248;59.350;18.050;2023-01-05T07:21:08;1.33;;;0.60;;
51184;SDS011;37248;59.350;18.050;2023-01-05T07:23:34;0.97;;;0.67;;
51184;SDS011;37248;59.350;18.050;2023-01-05T07:26:02;1.30;;;0.60;;
51184;SDS011;37248;59.350;18.050;2023-01-05T07:28:27;1.80;;;0.70;;
51184;SDS011;37248;59.350;18.050;2023-01-05T07:30:52;0.90;;;0.70;;
51184;SDS011;37248;59.350;18.050;2023-01-05T07:33:18;1.40;;;0.70;;
51184;SDS011;37248;59.350;18.050;2023-01-05T07:35:43;1.03;;;0.60;;
51184;SDS011;37248;59.350;18.050;2023-01-05T07:38:08;0.90;;;0.75;;
51184;SDS011;37248;59.350;18.050;2023-01-05T07:40:34;0.77;;;0.53;;
51184;SDS011;37248;59.350;18.050;2023-01-05T07:42:59;1.40;;;0.70;;
51184;SDS011;37248;59.350;18.050;2023-01-05T07:45:25;0.80;;;0.60;;
51184;SDS011;37248;59.350;18.050;2023-01-05T07:47:50;0.90;;;0.70;;
51184;SDS011;37248;59.350;18.050;2023-01-05T07:50:15;1.20;;;0.70;;
51184;SDS011;37248;59.350;18.050;2023-01-05T07:52:41;1.93;;;0.80;;
51184;SDS011;37248;59.350;18.050;2023-01-05T07:55:06;1.30;;;0.67;;
51184;SDS011;37248;59.350;18.050;2023-01-05T07:57:32;1.95;;;0.75;;
51184;SDS011;37248;59.350;18.050;2023-01-05T07:59:57;0.90;;;0.70;;
51184;SDS011;37248;59.350;18.050;2023-01-05T08:02:22;1.37;;;0.80;;
51184;SDS011;37248;59.350;18.050;2023-01-05T08:04:48;1.20;;;0.70;;
51184;SDS011;37248;59.350;18.050;2023-01-05T08:07:13;1.20;;;0.77;;
51184;SDS011;37248;59.350;18.050;2023-01-05T08:09:39;0.70;;;0.50;;
51184;SDS011;37248;59.350;18.050;2023-01-05T08:12:24;2.28;;;0.70;;
51184;SDS011;37248;59.350;18.050;2023-01-05T08:14:49;1.07;;;0.63;;
51184;SDS011;37248;59.350;18.050;2023-01-05T08:17:14;1.47;;;0.70;;
51184;SDS011;37248;59.350;18.050;2023-01-05T08:19:39;1.00;;;0.70;;
51184;SDS011;37248;59.350;18.050;2023-01-05T08:22:05;1.50;;;0.83;;
51184;SDS011;37248;59.350;18.050;2023-01-05T08:24:30;1.37;;;0.73;;
51184;SDS011;37248;59.350;18.050;2023-01-05T08:26:55;1.10;;;0.70;;
51184;SDS011;37248;59.350;18.050;2023-01-05T08:29:20;1.50;;;0.80;;
51184;SDS011;37248;59.350;18.050;2023-01-05T08:31:46;1.37;;;0.80;;
51184;SDS011;37248;59.350;18.050;2023-01-05T08:34:11;1.23;;;0.73;;
51184;SDS011;37248;59.350;18.050;2023-01-05T08:36:36;1.00;;;0.60;;
51184;SDS011;37248;59.350;18.050;2023-01-05T08:39:02;1.67;;;0.93;;
51184;SDS011;37248;59.350;18.050;2023-01-05T08:41:29;1.05;;;0.73;;
51184;SDS011;37248;59.350;18.050;2023-01-05T08:43:56;1.80;;;0.98;;
51184;SDS011;37248;59.350;18.050;2023-01-05T08:46:22;1.50;;;0.85;;
51184;SDS011;37248;59.350;18.050;2023-01-05T08:48:48;1.83;;;0.98;;
51184;SDS011;37248;59.350;18.050;2023-01-05T08:51:13;1.55;;;0.90;;
51184;SDS011;37248;59.350;18.050;2023-01-05T08:53:39;2.00;;;0.80;;
51184;SDS011;37248;59.350;18.050;2023-01-05T08:56:04;1.47;;;0.80;;
51184;SDS011;37248;59.350;18.050;2023-01-05T08:58:30;1.50;;;0.90;;
51184;SDS011;37248;59.350;18.050;2023-01-05T09:00:55;1.10;;;0.70;;
51184;SDS011;37248;59.350;18.050;2023-01-05T09:03:20;1.70;;;0.93;;
51184;SDS011;37248;59.350;18.050;2023-01-05T09:05:46;1.40;;;0.80;;
51184;SDS011;37248;59.350;18.050;2023-01-05T09:08:11;1.53;;;0.90;;
51184;SDS011;37248;59.350;18.050;2023-01-05T09:10:36;1.00;;;0.80;;
51184;SDS011;37248;59.350;18.050;2023-01-05T09:13:02;1.20;;;0.73;;
51184;SDS011;37248;59.350;18.050;2023-01-05T09:15:27;1.73;;;0.93;;
51184;SDS011;37248;59.350;18.050;2023-01-05T09:17:52;2.35;;;0.90;;
51184;SDS011;37248;59.350;18.050;2023-01-05T09:20:17;1.20;;;0.80;;
51184;SDS011;37248;59.350;18.050;2023-01-05T09:22:43;1.83;;;0.80;;
51184;SDS011;37248;59.350;18.050;2023-01-05T09:25:09;1.90;;;0.98;;
51184;SDS011;37248;59.350;18.050;2023-01-05T09:27:34;1.20;;;0.80;;
51184;SDS011;37248;59.350;18.050;2023-01-05T09:30:00;1.38;;;0.90;;
51184;SDS011;37248;59.350;18.050;2023-01-05T09:32:26;1.10;;;0.70;;
51184;SDS011;37248;59.350;18.050;2023-01-05T09:34:51;1.10;;;0.90;;
51184;SDS011;37248;59.350;18.050;2023-01-05T09:37:16;1.30;;;0.80;;
51184;SDS011;37248;59.350;18.050;2023-01-05T09:39:41;1.97;;;0.90;;
51184;SDS011;37248;59.350;18.050;2023-01-05T09:42:09;1.60;;;0.90;;
51184;SDS011;37248;59.350;18.050;2023-01-05T09:44:38;1.60;;;0.80;;
51184;SDS011;37248;59.350;18.050;2023-01-05T09:49:49;1.35;;;0.90;;
51184;SDS011;37248;59.350;18.050;2023-01-05T09:52:14;1.37;;;1.00;;
51184;SDS011;37248;59.350;18.050;2023-01-05T09:54:40;1.48;;;0.93;;
51184;SDS011;37248;59.350;18.050;2023-01-05T09:57:10;1.60;;;1.03;;
51184;SDS011;37248;59.350;18.050;2023-01-05T09:59:38;1.63;;;1.00;;
51184;SDS011;37248;59.350;18.050;2023-01-05T10:02:15;1.20;;;1.00;;
51184;SDS011;37248;59.350;18.050;2023-01-05T10:04:41;1.30;;;1.00;;
51184;SDS011;37248;59.350;18.050;2023-01-05T10:07:07;1.50;;;1.17;;
51184;SDS011;37248;59.350;18.050;2023-01-05T10:09:39;1.65;;;1.08;;
51184;SDS011;37248;59.350;18.050;2023-01-05T10:14:52;1.92;;;1.23;;
51184;SDS011;37248;59.350;18.050;2023-01-05T10:17:19;1.58;;;1.20;;
51184;SDS011;37248;59.350;18.050;2023-01-05T10:19:44;1.77;;;1.13;;
51184;SDS011;37248;59.350;18.050;2023-01-05T10:30:38;1.50;;;1.13;;
51184;SDS011;37248;59.350;18.050;2023-01-05T10:32:43;2.38;;;1.33;;
51184;SDS011;37248;59.350;18.050;2023-01-05T10:45:12;2.28;;;1.20;;
51184;SDS011;37248;59.350;18.050;2023-01-05T10:47:38;1.95;;;1.30;;
51184;SDS011;37248;59.350;18.050;2023-01-05T10:50:17;2.10;;;1.20;;
51184;SDS011;37248;59.350;18.050;2023-01-05T10:52:44;1.70;;;1.40;;
51184;SDS011;37248;59.350;18.050;2023-01-05T10:55:12;2.23;;;1.30;;
51184;SDS011;37248;59.350;18.050;2023-01-05T10:57:39;1.58;;;1.10;;
51184;SDS011;37248;59.350;18.050;2023-01-05T11:00:15;2.42;;;1.52;;
51184;SDS011;37248;59.350;18.050;2023-01-05T11:02:41;1.73;;;1.30;;
51184;SDS011;37248;59.350;18.050;2023-01-05T11:10:32;1.77;;;1.20;;
51184;SDS011;37248;59.350;18.050;2023-01-05T11:13:02;2.38;;;1.50;;
51184;SDS011;37248;59.350;18.050;2023-01-05T11:15:32;2.13;;;1.20;;
51184;SDS011;37248;59.350;18.050;2023-01-05T11:17:58;1.92;;;1.25;;
51184;SDS011;37248;59.350;18.050;2023-01-05T11:20:24;1.80;;;1.13;;
51184;SDS011;37248;59.350;18.050;2023-01-05T11:22:51;1.88;;;1.23;;
51184;SDS011;37248;59.350;18.050;2023-01-05T11:25:20;1.90;;;1.30;;
51184;SDS011;37248;59.350;18.050;2023-01-05T11:28:01;1.83;;;1.20;;
51184;SDS011;37248;59.350;18.050;2023-01-05T11:30:28;2.00;;;1.30;;
51184;SDS011;37248;59.350;18.050;2023-01-05T11:32:53;2.00;;;1.30;;
51184;SDS011;37248;59.350;18.050;2023-01-05T11:35:29;2.03;;;1.50;;
51184;SDS011;37248;59.350;18.050;2023-01-05T11:37:55;3.70;;;1.20;;
51184;SDS011;37248;59.350;18.050;2023-01-05T11:40:21;1.77;;;1.10;;
51184;SDS011;37248;59.350;18.050;2023-01-05T11:42:49;2.70;;;1.38;;
51184;SDS011;37248;59.350;18.050;2023-01-05T11:45:18;2.10;;;1.53;;
51184;SDS011;37248;59.350;18.050;2023-01-05T11:52:39;2.30;;;1.15;;
51184;SDS011;37248;59.350;18.050;2023-01-05T11:57:52;2.60;;;1.50;;
51184;SDS011;37248;59.350;18.050;2023-01-05T12:00:24;2.17;;;1.37;;
51184;SDS011;37248;59.350;18.050;2023-01-05T12:03:00;1.75;;;1.20;;
51184;SDS011;37248;59.350;18.050;2023-01-05T12:05:45;1.92;;;1.27;;
51184;SDS011;37248;59.350;18.050;2023-01-05T12:08:19;2.03;;;1.40;;
51184;SDS011;37248;59.350;18.050;2023-01-05T12:15:53;2.78;;;1.58;;
51184;SDS011;37248;59.350;18.050;2023-01-05T12:21:26;3.25;;;1.60;;
51184;SDS011;37248;59.350;18.050;2023-01-05T12:26:26;2.13;;;1.50;;
51184;SDS011;37248;59.350;18.050;2023-01-05T12:29:12;2.57;;;1.43;;
51184;SDS011;37248;59.350;18.050;2023-01-05T12:34:43;1.70;;;1.27;;
51184;SDS011;37248;59.350;18.050;2023-01-05T12:52:43;2.87;;;1.80;;
51184;SDS011;37248;59.350;18.050;2023-01-05T12:55:20;2.35;;;1.45;;
51184;SDS011;37248;59.350;18.050;2023-01-05T12:58:03;2.35;;;1.60;;
51184;SDS011;37248;59.350;18.050;2023-01-05T13:00:32;2.40;;;1.60;;
51184;SDS011;37248;59.350;18.050;2023-01-05T13:03:07;2.05;;;1.42;;
51184;SDS011;37248;59.350;18.050;2023-01-05T13:05:39;2.45;;;1.50;;
51184;SDS011;37248;59.350;18.050;2023-01-05T13:13:16;2.53;;;1.58;;
51184;SDS011;37248;59.350;18.050;2023-01-05T13:18:27;2.63;;;1.73;;
51184;SDS011;37248;59.350;18.050;2023-01-05T13:20:58;2.15;;;1.45;;
51184;SDS011;37248;59.350;18.050;2023-01-05T13:23:26;2.30;;;1.40;;
51184;SDS011;37248;59.350;18.050;2023-01-05T13:26:06;2.58;;;1.67;;
51184;SDS011;37248;59.350;18.050;2023-01-05T13:28:31;2.15;;;1.50;;
51184;SDS011;37248;59.350;18.050;2023-01-05T13:36:24;2.40;;;1.45;;
51184;SDS011;37248;59.350;18.050;2023-01-05T13:56:42;3.05;;;1.75;;
51184;SDS011;37248;59.350;18.050;2023-01-05T13:59:29;2.30;;;1.60;;
51184;SDS011;37248;59.350;18.050;2023-01-05T14:01:56;2.35;;;1.63;;
51184;SDS011;37248;59.350;18.050;2023-01-05T14:04:28;2.88;;;1.90;;
51184;SDS011;37248;59.350;18.050;2023-01-05T14:06:58;2.47;;;1.80;;
51184;SDS011;37248;59.350;18.050;2023-01-05T14:09:43;2.88;;;2.00;;
51184;SDS011;37248;59.350;18.050;2023-01-05T14:14:56;2.83;;;1.88;;
51184;SDS011;37248;59.350;18.050;2023-01-05T14:18:07;2.75;;;1.95;;
51184;SDS011;37248;59.350;18.050;2023-01-05T14:20:28;2.50;;;1.90;;
51184;SDS011;37248;59.350;18.050;2023-01-05T14:22:52;3.10;;;1.90;;
51184;SDS011;37248;59.350;18.050;2023-01-05T14:33:31;2.22;;;1.70;;
51184;SDS011;37248;59.350;18.050;2023-01-05T14:35:57;3.00;;;1.70;;
51184;SDS011;37248;59.350;18.050;2023-01-05T14:38:22;3.30;;;2.10;;
51184;SDS011;37248;59.350;18.050;2023-01-05T14:40:49;2.50;;;1.60;;
51184;SDS011;37248;59.350;18.050;2023-01-05T14:45:55;3.30;;;1.80;;
51184;SDS011;37248;59.350;18.050;2023-01-05T14:51:25;1.73;;;1.40;;
51184;SDS011;37248;59.350;18.050;2023-01-05T14:53:51;2.80;;;1.77;;
51184;SDS011;37248;59.350;18.050;2023-01-05T15:03:37;2.50;;;1.63;;
51184;SDS011;37248;59.350;18.050;2023-01-05T15:06:29;2.90;;;1.63;;
51184;SDS011;37248;59.350;18.050;2023-01-05T15:19:36;2.83;;;1.90;;
51184;SDS011;37248;59.350;18.050;2023-01-05T15:25:01;2.28;;;1.75;;
51184;SDS011;37248;59.350;18.050;2023-01-05T15:27:28;2.30;;;1.60;;
51184;SDS011;37248;59.350;18.050;2023-01-05T15:30:03;2.67;;;1.77;;
51184;SDS011;37248;59.350;18.050;2023-01-05T15:32:35;2.75;;;1.60;;
51184;SDS011;37248;59.350;18.050;2023-01-05T15:35:16;2.00;;;1.45;;
51184;SDS011;37248;59.350;18.050;2023-01-05T15:37:43;3.17;;;1.90;;
51184;SDS011;37248;59.350;18.050;2023-01-05T15:40:30;2.55;;;1.40;;
51184;SDS011;37248;59.350;18.050;2023-01-05T15:42:55;2.20;;;1.60;;
51184;SDS011;37248;59.350;18.050;2023-01-05T15:45:31;2.53;;;1.60;;
51184;SDS011;37248;59.350;18.050;2023-01-05T15:47:57;2.83;;;1.58;;
51184;SDS011;37248;59.350;18.050;2023-01-05T15:50:25;2.45;;;1.40;;
51184;SDS011;37248;59.350;18.050;2023-01-05T15:52:54;3.53;;;1.80;;
51184;SDS011;37248;59.350;18.050;2023-01-05T15:55:19;2.20;;;1.60;;
51184;SDS011;37248;59.350;18.050;2023-01-05T15:57:58;2.60;;;1.60;;
51184;SDS011;37248;59.350;18.050;2023-01-05T16:00:25;2.00;;;1.40;;
51184;SDS011;37248;59.350;18.050;2023-01-05T16:02:50;2.43;;;1.53;;
51184;SDS011;37248;59.350;18.050;2023-01-05T16:05:26;2.87;;;1.37;;
51184;SDS011;37248;59.350;18.050;2023-01-05T16:08:02;2.75;;;1.48;;
51184;SDS011;37248;59.350;18.050;2023-01-05T16:13:18;2.30;;;1.35;;
51184;SDS011;37248;59.350;18.050;2023-01-05T16:15:48;2.95;;;1.60;;
51184;SDS011;37248;59.350;18.050;2023-01-05T16:18:16;2.53;;;1.50;;
51184;SDS011;37248;59.350;18.050;2023-01-05T16:20:44;2.50;;;1.40;;
51184;SDS011;37248;59.350;18.050;2023-01-05T16:23:13;2.10;;;1.40;;
51184;SDS011;37248;59.350;18.050;2023-01-05T16:25:41;2.67;;;1.40;;
51184;SDS011;37248;59.350;18.050;2023-01-05T16:28:07;2.28;;;1.52;;
51184;SDS011;37248;59.350;18.050;2023-01-05T16:30:36;2.88;;;1.30;;
51184;SDS011;37248;59.350;18.050;2023-01-05T16:33:02;2.60;;;1.50;;
51184;SDS011;37248;59.350;18.050;2023-01-05T16:38:17;2.42;;;1.45;;
51184;SDS011;37248;59.350;18.050;2023-01-05T16:45:45;3.23;;;1.50;;
51184;SDS011;37248;59.350;18.050;2023-01-05T16:48:57;2.10;;;1.50;;
51184;SDS011;37248;59.350;18.050;2023-01-05T16:50:56;2.10;;;1.40;;
51184;SDS011;37248;59.350;18.050;2023-01-05T16:53:21;2.05;;;1.40;;
51184;SDS011;37248;59.350;18.050;2023-01-05T16:55:47;2.37;;;1.60;;
51184;SDS011;37248;59.350;18.050;2023-01-05T17:03:34;2.83;;;1.40;;
51184;SDS011;37248;59.350;18.050;2023-01-05T17:05:59;2.13;;;1.30;;
51184;SDS011;37248;59.350;18.050;2023-01-05T17:08:25;2.00;;;1.40;;
51184;SDS011;37248;59.350;18.050;2023-01-05T17:10:53;3.70;;;1.40;;
51184;SDS011;37248;59.350;18.050;2023-01-05T17:13:24;2.28;;;1.50;;
51184;SDS011;37248;59.350;18.050;2023-01-05T17:15:50;3.13;;;1.48;;
51184;SDS011;37248;59.350;18.050;2023-01-05T17:18:17;2.10;;;1.40;;
51184;SDS011;37248;59.350;18.050;2023-01-05T17:20:43;2.05;;;1.40;;
51184;SDS011;37248;59.350;18.050;2023-01-05T17:23:11;1.93;;;1.50;;
51184;SDS011;37248;59.350;18.050;2023-01-05T17:25:38;3.63;;;1.58;;
51184;SDS011;37248;59.350;18.050;2023-01-05T17:28:04;2.90;;;1.60;;
51184;SDS011;37248;59.350;18.050;2023-01-05T17:30:29;2.50;;;1.80;;
51184;SDS011;37248;59.350;18.050;2023-01-05T17:32:54;2.93;;;2.43;;
51184;SDS011;37248;59.350;18.050;2023-01-05T17:35:20;3.85;;;2.80;;